sensor_id;sensor_type;location;lat;lon;timestamp;pressure;altitude;pressure_sealevel;temperature;humidity
61337;BME280;47212;41.326;2.104;2024-03-07T00:02:14;101785.41;;;11.54;61.41
61337;BME280;47212;41.326;2.104;2024-03-07T00:07:16;101782.09;;;11.52;61.75
61337;BME280;47212;41.326;2.104;2024-03-07T00:12:26;101779.84;;;11.48;62.58
61337;BME280;47212;41.326;2.104;2024-03-07T00:17:29;101776.78;;;11.45;63.01
61337;BME280;47212;41.326;2.104;2024-03-07T00:22:32;101771.00;;;11.41;63.14
61337;BME280;47212;41.326;2.104;2024-03-07T00:27:34;101771.47;;;11.38;66.16
61337;BME280;47212;41.326;2.104;2024-03-07T00:32:46;101773.03;;;11.34;64.69
61337;BME280;47212;41.326;2.104;2024-03-07T00:37:53;101764.84;;;11.34;64.50
61337;BME280;47212;41.326;2.104;2024-03-07T00:42:55;101755.59;;;11.35;64.80
61337;BME280;47212;41.326;2.104;2024-03-07T00:47:58;101749.31;;;11.35;65.90
61337;BME280;47212;41.326;2.104;2024-03-07T00:53:01;101753.13;;;11.34;65.86
61337;BME280;47212;41.326;2.104;2024-03-07T00:58:03;101744.59;;;11.30;66.34
61337;BME280;47212;41.326;2.104;2024-03-07T01:03:07;101737.50;;;11.29;66.96
61337;BME280;47212;41.326;2.104;2024-03-07T01:08:12;101738.56;;;11.28;66.39
61337;BME280;47212;41.326;2.104;2024-03-07T01:13:14;101729.19;;;11.24;68.95
61337;BME280;47212;41.326;2.104;2024-03-07T01:18:21;101727.66;;;11.16;65.98
61337;BME280;47212;41.326;2.104;2024-03-07T01:23:23;101729.03;;;11.02;67.39
61337;BME280;47212;41.326;2.104;2024-03-07T01:28:26;101721.84;;;10.84;65.85
61337;BME280;47212;41.326;2.104;2024-03-07T01:33:31;101720.44;;;10.70;65.93
61337;BME280;47212;41.326;2.104;2024-03-07T01:38:34;101711.81;;;10.62;66.12
61337;BME280;47212;41.326;2.104;2024-03-07T01:43:36;101700.47;;;10.53;66.40
61337;BME280;47212;41.326;2.104;2024-03-07T01:48:38;101700.94;;;10.50;66.79
61337;BME280;47212;41.326;2.104;2024-03-07T01:53:48;101687.22;;;10.45;66.98
61337;BME280;47212;41.326;2.104;2024-03-07T01:59:05;101671.63;;;10.40;67.40
61337;BME280;47212;41.326;2.104;2024-03-07T02:05:35;101665.78;;;10.37;68.40
61337;BME280;47212;41.326;2.104;2024-03-07T02:10:38;101649.09;;;10.33;67.27
61337;BME280;47212;41.326;2.104;2024-03-07T02:15:43;101650.41;;;10.31;67.24
61337;BME280;47212;41.326;2.104;2024-03-07T02:20:49;101647.69;;;10.31;68.13
61337;BME280;47212;41.326;2.104;2024-03-07T02:26:27;101627.34;;;10.33;69.34
61337;BME280;47212;41.326;2.104;2024-03-07T02:31:33;101621.75;;;10.40;68.04
61337;BME280;47212;41.326;2.104;2024-03-07T02:36:44;101608.63;;;10.48;69.22
61337;BME280;47212;41.326;2.104;2024-03-07T02:42:07;101595.97;;;10.54;68.32
61337;BME280;47212;41.326;2.104;2024-03-07T02:47:17;101590.50;;;10.54;69.37
61337;BME280;47212;41.326;2.104;2024-03-07T02:52:24;101584.59;;;10.57;69.37
61337;BME280;47212;41.326;2.104;2024-03-07T02:57:27;101569.91;;;10.58;69.48
61337;BME280;47212;41.326;2.104;2024-03-07T03:02:36;101560.44;;;10.61;70.58
61337;BME280;47212;41.326;2.104;2024-03-07T03:07:42;101556.53;;;10.57;70.19
61337;BME280;47212;41.326;2.104;2024-03-07T03:12:53;101546.38;;;10.52;70.98
61337;BME280;47212;41.326;2.104;2024-03-07T03:18:14;101536.22;;;10.47;70.80
61337;BME280;47212;41.326;2.104;2024-03-07T03:23:20;101531.94;;;10.40;70.62
61337;BME280;47212;41.326;2.104;2024-03-07T03:28:23;101532.69;;;10.35;70.93
61337;BME280;47212;41.326;2.104;2024-03-07T03:33:32;101532.81;;;10.29;71.38
61337;BME280;47212;41.326;2.104;2024-03-07T03:38:35;101527.75;;;10.20;71.05
61337;BME280;47212;41.326;2.104;2024-03-07T03:43:38;101523.00;;;10.16;72.52
61337;BME280;47212;41.326;2.104;2024-03-07T03:48:44;101506.47;;;10.06;70.67
61337;BME280;47212;41.326;2.104;2024-03-07T03:53:46;101511.69;;;9.96;72.25
61337;BME280;47212;41.326;2.104;2024-03-07T03:58:56;101508.03;;;9.90;70.24
61337;BME280;47212;41.326;2.104;2024-03-07T04:04:02;101513.84;;;9.82;70.85
61337;BME280;47212;41.326;2.104;2024-03-07T04:09:08;101512.66;;;9.78;70.18
61337;BME280;47212;41.326;2.104;2024-03-07T04:14:13;101508.53;;;9.75;70.52
61337;BME280;47212;41.326;2.104;2024-03-07T04:19:18;101504.63;;;9.71;70.72
61337;BME280;47212;41.326;2.104;2024-03-07T04:24:23;101505.59;;;9.65;70.60
61337;BME280;47212;41.326;2.104;2024-03-07T04:29:27;101492.25;;;9.64;70.84
61337;BME280;47212;41.326;2.104;2024-03-07T04:34:30;101495.53;;;9.66;70.62
61337;BME280;47212;41.326;2.104;2024-03-07T04:39:33;101498.84;;;9.68;70.80
61337;BME280;47212;41.326;2.104;2024-03-07T04:44:39;101482.88;;;9.71;70.37
61337;BME280;47212;41.326;2.104;2024-03-07T04:49:46;101481.59;;;9.74;70.82
61337;BME280;47212;41.326;2.104;2024-03-07T04:54:50;101481.00;;;9.72;70.63
61337;BME280;47212;41.326;2.104;2024-03-07T04:59:57;101468.00;;;9.74;70.91
61337;BME280;47212;41.326;2.104;2024-03-07T05:05:27;101459.34;;;9.77;70.66
61337;BME280;47212;41.326;2.104;2024-03-07T05:10:35;101449.53;;;9.76;70.98
61337;BME280;47212;41.326;2.104;2024-03-07T05:15:38;101454.25;;;9.80;71.18
61337;BME280;47212;41.326;2.104;2024-03-07T05:22:33;101446.34;;;9.79;71.23
61337;BME280;47212;41.326;2.104;2024-03-07T05:29:30;101463.13;;;9.76;70.97
61337;BME280;47212;41.326;2.104;2024-03-07T05:36:30;101457.34;;;9.72;70.56
61337;BME280;47212;41.326;2.104;2024-03-07T05:41:32;101452.06;;;9.66;70.40
61337;BME280;47212;41.326;2.104;2024-03-07T05:46:37;101441.66;;;9.63;71.74
61337;BME280;47212;41.326;2.104;2024-03-07T05:51:43;101452.75;;;9.61;70.45
61337;BME280;47212;41.326;2.104;2024-03-07T05:56:47;101455.50;;;9.61;70.87
61337;BME280;47212;41.326;2.104;2024-03-07T06:01:51;101462.81;;;9.61;70.90
61337;BME280;47212;41.326;2.104;2024-03-07T06:06:56;101468.00;;;9.62;70.92
61337;BME280;47212;41.326;2.104;2024-03-07T06:11:58;101457.25;;;9.67;71.01
61337;BME280;47212;41.326;2.104;2024-03-07T06:17:17;101461.16;;;9.71;70.45
61337;BME280;47212;41.326;2.104;2024-03-07T06:22:24;101464.09;;;9.70;70.60
61337;BME280;47212;41.326;2.104;2024-03-07T06:27:26;101479.81;;;9.68;70.62
61337;BME280;47212;41.326;2.104;2024-03-07T06:32:29;101488.56;;;9.70;70.97
61337;BME280;47212;41.326;2.104;2024-03-07T06:37:35;101484.78;;;9.71;70.91
61337;BME280;47212;41.326;2.104;2024-03-07T06:42:38;101490.81;;;9.73;70.37
61337;BME280;47212;41.326;2.104;2024-03-07T06:47:47;101499.06;;;9.78;70.61
61337;BME280;47212;41.326;2.104;2024-03-07T06:52:50;101496.00;;;9.86;69.62
61337;BME280;47212;41.326;2.104;2024-03-07T06:57:52;101495.03;;;9.92;69.70
61337;BME280;47212;41.326;2.104;2024-03-07T07:02:58;101503.16;;;10.04;70.24
61337;BME280;47212;41.326;2.104;2024-03-07T07:08:01;101508.22;;;10.24;70.55
61337;BME280;47212;41.326;2.104;2024-03-07T07:13:03;101504.72;;;10.40;69.91
61337;BME280;47212;41.326;2.104;2024-03-07T07:18:08;101510.75;;;10.53;69.67
61337;BME280;47212;41.326;2.104;2024-03-07T07:23:13;101507.38;;;10.63;69.19
61337;BME280;47212;41.326;2.104;2024-03-07T07:28:16;101504.03;;;10.73;68.58
61337;BME280;47212;41.326;2.104;2024-03-07T07:33:20;101506.19;;;10.88;67.89
61337;BME280;47212;41.326;2.104;2024-03-07T07:38:23;101510.75;;;10.99;66.77
61337;BME280;47212;41.326;2.104;2024-03-07T07:43:25;101505.78;;;11.12;66.31
61337;BME280;47212;41.326;2.104;2024-03-07T07:48:43;101512.25;;;11.57;65.74
61337;BME280;47212;41.326;2.104;2024-03-07T07:53:46;101518.03;;;11.60;64.97
61337;BME280;47212;41.326;2.104;2024-03-07T07:58:48;101521.50;;;11.56;64.36
61337;BME280;47212;41.326;2.104;2024-03-07T08:03:50;101525.88;;;11.57;64.37
61337;BME280;47212;41.326;2.104;2024-03-07T08:08:55;101524.94;;;11.68;64.16
61337;BME280;47212;41.326;2.104;2024-03-07T08:13:58;101516.25;;;12.09;63.27
61337;BME280;47212;41.326;2.104;2024-03-07T08:19:00;101519.34;;;12.35;62.43
61337;BME280;47212;41.326;2.104;2024-03-07T08:24:02;101513.69;;;12.41;61.25
61337;BME280;47212;41.326;2.104;2024-03-07T08:29:07;101521.66;;;12.48;62.04
61337;BME280;47212;41.326;2.104;2024-03-07T08:34:10;101517.72;;;12.61;61.29
61337;BME280;47212;41.326;2.104;2024-03-07T08:39:12;101507.09;;;12.91;59.90
61337;BME280;47212;41.326;2.104;2024-03-07T08:44:15;101504.97;;;12.98;60.25
61337;BME280;47212;41.326;2.104;2024-03-07T08:49:27;101498.28;;;13.11;60.02
61337;BME280;47212;41.326;2.104;2024-03-07T08:54:31;101496.06;;;13.08;60.00
61337;BME280;47212;41.326;2.104;2024-03-07T08:59:33;101481.47;;;13.24;59.47
61337;BME280;47212;41.326;2.104;2024-03-07T09:04:36;101489.41;;;13.68;58.88
61337;BME280;47212;41.326;2.104;2024-03-07T09:09:38;101476.53;;;14.21;57.76
61337;BME280;47212;41.326;2.104;2024-03-07T09:14:41;101472.34;;;14.76;56.83
61337;BME280;47212;41.326;2.104;2024-03-07T09:19:48;101471.25;;;14.97;56.86
61337;BME280;47212;41.326;2.104;2024-03-07T09:24:51;101463.56;;;14.89;57.05
61337;BME280;47212;41.326;2.104;2024-03-07T09:29:53;101454.78;;;15.12;57.19
61337;BME280;47212;41.326;2.104;2024-03-07T09:34:56;101450.38;;;15.26;57.57
61337;BME280;47212;41.326;2.104;2024-03-07T09:39:58;101453.88;;;15.83;57.23
61337;BME280;47212;41.326;2.104;2024-03-07T09:45:05;101445.16;;;16.25;56.72
61337;BME280;47212;41.326;2.104;2024-03-07T09:50:10;101435.03;;;16.70;56.20
61337;BME280;47212;41.326;2.104;2024-03-07T09:55:13;101441.09;;;17.01;56.58
61337;BME280;47212;41.326;2.104;2024-03-07T10:00:17;101436.13;;;17.32;57.63
61337;BME280;47212;41.326;2.104;2024-03-07T10:05:31;101425.34;;;17.40;57.34
61337;BME280;47212;41.326;2.104;2024-03-07T10:10:36;101431.88;;;17.73;57.21
61337;BME280;47212;41.326;2.104;2024-03-07T10:15:42;101427.81;;;17.90;58.06
61337;BME280;47212;41.326;2.104;2024-03-07T10:20:45;101421.44;;;17.70;58.41
61337;BME280;47212;41.326;2.104;2024-03-07T10:25:49;101412.53;;;17.26;60.03
61337;BME280;47212;41.326;2.104;2024-03-07T10:30:52;101405.25;;;17.40;60.09
61337;BME280;47212;41.326;2.104;2024-03-07T10:35:54;101394.84;;;17.61;59.58
61337;BME280;47212;41.326;2.104;2024-03-07T10:40:57;101401.66;;;17.68;59.73
61337;BME280;47212;41.326;2.104;2024-03-07T10:46:05;101385.94;;;17.45;60.89
61337;BME280;47212;41.326;2.104;2024-03-07T10:51:26;101394.53;;;17.38;61.03
61337;BME280;47212;41.326;2.104;2024-03-07T10:56:43;101385.84;;;17.26;61.42
61337;BME280;47212;41.326;2.104;2024-03-07T11:07:23;101376.75;;;17.02;62.37
61337;BME280;47212;41.326;2.104;2024-03-07T11:12:26;101378.28;;;16.84;61.79
61337;BME280;47212;41.326;2.104;2024-03-07T11:17:30;101372.16;;;16.92;62.37
61337;BME280;47212;41.326;2.104;2024-03-07T11:22:35;101358.34;;;16.97;62.11
61337;BME280;47212;41.326;2.104;2024-03-07T11:27:37;101361.69;;;17.47;60.78
61337;BME280;47212;41.326;2.104;2024-03-07T11:32:48;101352.78;;;17.79;60.71
61337;BME280;47212;41.326;2.104;2024-03-07T11:37:59;101339.91;;;17.74;60.46
61337;BME280;47212;41.326;2.104;2024-03-07T11:43:01;101328.38;;;17.91;59.80
61337;BME280;47212;41.326;2.104;2024-03-07T11:48:08;101310.72;;;18.11;59.38
61337;BME280;47212;41.326;2.104;2024-03-07T11:53:14;101312.25;;;18.22;58.47
61337;BME280;47212;41.326;2.104;2024-03-07T11:58:20;101288.56;;;18.21;57.76
61337;BME280;47212;41.326;2.104;2024-03-07T12:03:24;101283.69;;;18.32;57.28
61337;BME280;47212;41.326;2.104;2024-03-07T12:08:29;101271.78;;;18.18;57.33
61337;BME280;47212;41.326;2.104;2024-03-07T12:13:35;101286.31;;;18.23;57.27
61337;BME280;47212;41.326;2.104;2024-03-07T12:18:38;101260.53;;;18.14;57.12
61337;BME280;47212;41.326;2.104;2024-03-07T12:23:41;101258.47;;;18.06;57.50
61337;BME280;47212;41.326;2.104;2024-03-07T12:28:44;101253.34;;;17.99;57.81
61337;BME280;47212;41.326;2.104;2024-03-07T12:33:46;101239.16;;;17.73;58.44
61337;BME280;47212;41.326;2.104;2024-03-07T12:38:54;101223.34;;;17.41;60.12
61337;BME280;47212;41.326;2.104;2024-03-07T12:43:59;101227.22;;;17.59;59.52
61337;BME280;47212;41.326;2.104;2024-03-07T12:49:01;101221.31;;;17.66;57.99
61337;BME280;47212;41.326;2.104;2024-03-07T12:54:03;101210.50;;;17.74;57.47
61337;BME280;47212;41.326;2.104;2024-03-07T12:59:06;101208.59;;;17.51;57.95
61337;BME280;47212;41.326;2.104;2024-03-07T13:04:16;101192.75;;;17.43;57.94
61337;BME280;47212;41.326;2.104;2024-03-07T13:09:19;101189.66;;;17.68;56.63
61337;BME280;47212;41.326;2.104;2024-03-07T13:14:31;101193.88;;;17.42;57.24
61337;BME280;47212;41.326;2.104;2024-03-07T13:19:37;101185.34;;;17.19;57.36
61337;BME280;47212;41.326;2.104;2024-03-07T13:24:43;101177.25;;;17.28;56.08
61337;BME280;47212;41.326;2.104;2024-03-07T13:29:47;101167.66;;;17.26;56.06
61337;BME280;47212;41.326;2.104;2024-03-07T13:34:51;101150.34;;;17.25;57.19
61337;BME280;47212;41.326;2.104;2024-03-07T13:39:53;101143.44;;;17.28;56.20
61337;BME280;47212;41.326;2.104;2024-03-07T13:44:58;101149.22;;;17.26;55.90
61337;BME280;47212;41.326;2.104;2024-03-07T13:50:03;101143.59;;;17.36;56.14
61337;BME280;47212;41.326;2.104;2024-03-07T13:55:05;101140.03;;;17.36;56.68
61337;BME280;47212;41.326;2.104;2024-03-07T14:05:55;101132.25;;;17.00;59.14
61337;BME280;47212;41.326;2.104;2024-03-07T14:17:19;101130.25;;;17.06;59.66
61337;BME280;47212;41.326;2.104;2024-03-07T14:22:47;101121.91;;;16.73;59.23
61337;BME280;47212;41.326;2.104;2024-03-07T14:33:35;101106.91;;;16.61;59.66
61337;BME280;47212;41.326;2.104;2024-03-07T14:38:52;101104.00;;;16.52;59.60
61337;BME280;47212;41.326;2.104;2024-03-07T14:43:56;101097.53;;;16.62;58.83
61337;BME280;47212;41.326;2.104;2024-03-07T14:49:00;101097.38;;;16.53;59.10
61337;BME280;47212;41.326;2.104;2024-03-07T14:54:03;101089.22;;;16.43;60.29
61337;BME280;47212;41.326;2.104;2024-03-07T14:59:12;101094.72;;;16.19;60.19
61337;BME280;47212;41.326;2.104;2024-03-07T15:04:16;101101.50;;;16.03;58.71
61337;BME280;47212;41.326;2.104;2024-03-07T15:09:18;101100.44;;;15.99;59.99
61337;BME280;47212;41.326;2.104;2024-03-07T15:14:25;101092.13;;;16.04;60.36
61337;BME280;47212;41.326;2.104;2024-03-07T15:19:39;101079.19;;;16.09;60.30
61337;BME280;47212;41.326;2.104;2024-03-07T15:24:41;101071.50;;;15.82;59.54
61337;BME280;47212;41.326;2.104;2024-03-07T15:29:43;101072.78;;;15.61;61.45
61337;BME280;47212;41.326;2.104;2024-03-07T15:34:48;101062.63;;;15.62;61.88
61337;BME280;47212;41.326;2.104;2024-03-07T15:39:53;101061.00;;;15.60;61.41
61337;BME280;47212;41.326;2.104;2024-03-07T15:45:00;101061.25;;;15.54;59.68
61337;BME280;47212;41.326;2.104;2024-03-07T15:50:04;101071.69;;;15.62;62.29
61337;BME280;47212;41.326;2.104;2024-03-07T15:55:08;101068.69;;;15.53;62.45
61337;BME280;47212;41.326;2.104;2024-03-07T16:00:17;101038.47;;;15.58;63.94
61337;BME280;47212;41.326;2.104;2024-03-07T16:05:28;101043.16;;;15.53;65.79
61337;BME280;47212;41.326;2.104;2024-03-07T16:10:38;101033.91;;;15.44;66.69
61337;BME280;47212;41.326;2.104;2024-03-07T16:15:44;101035.88;;;15.38;68.12
61337;BME280;47212;41.326;2.104;2024-03-07T16:20:46;101028.03;;;15.26;68.25
61337;BME280;47212;41.326;2.104;2024-03-07T16:25:50;101040.25;;;15.39;68.14
61337;BME280;47212;41.326;2.104;2024-03-07T16:30:52;101038.91;;;15.37;68.56
61337;BME280;47212;41.326;2.104;2024-03-07T16:35:54;101032.50;;;15.17;68.69
61337;BME280;47212;41.326;2.104;2024-03-07T16:40:57;101032.50;;;15.17;68.61
61337;BME280;47212;41.326;2.104;2024-03-07T16:46:00;101031.72;;;15.12;69.00
61337;BME280;47212;41.326;2.104;2024-03-07T16:51:05;101032.31;;;15.04;69.34
61337;BME280;47212;41.326;2.104;2024-03-07T16:56:13;101028.50;;;15.00;70.08
61337;BME280;47212;41.326;2.104;2024-03-07T17:01:16;101022.28;;;14.89;70.58
61337;BME280;47212;41.326;2.104;2024-03-07T17:06:19;101019.56;;;14.84;71.71
61337;BME280;47212;41.326;2.104;2024-03-07T17:11:21;101026.19;;;14.78;74.10
61337;BME280;47212;41.326;2.104;2024-03-07T17:16:26;101015.25;;;14.68;72.50
61337;BME280;47212;41.326;2.104;2024-03-07T17:21:30;101017.19;;;14.62;72.56
61337;BME280;47212;41.326;2.104;2024-03-07T17:26:34;101023.53;;;14.57;74.02
61337;BME280;47212;41.326;2.104;2024-03-07T17:31:39;101015.88;;;14.54;74.13
61337;BME280;47212;41.326;2.104;2024-03-07T17:36:43;101010.44;;;14.49;74.36
61337;BME280;47212;41.326;2.104;2024-03-07T17:41:48;100994.28;;;14.48;75.99
61337;BME280;47212;41.326;2.104;2024-03-07T17:46:52;101000.03;;;14.41;75.19
61337;BME280;47212;41.326;2.104;2024-03-07T17:51:56;100991.28;;;14.39;76.17
61337;BME280;47212;41.326;2.104;2024-03-07T17:57:00;100996.75;;;14.39;76.04
61337;BME280;47212;41.326;2.104;2024-03-07T18:02:02;100995.13;;;14.43;76.35
61337;BME280;47212;41.326;2.104;2024-03-07T18:07:14;100998.69;;;14.44;76.60
61337;BME280;47212;41.326;2.104;2024-03-07T18:12:19;100978.69;;;14.38;76.71
61337;BME280;47212;41.326;2.104;2024-03-07T18:17:23;100984.69;;;14.40;76.49
61337;BME280;47212;41.326;2.104;2024-03-07T18:22:26;100989.06;;;14.41;76.81
61337;BME280;47212;41.326;2.104;2024-03-07T18:27:32;100992.91;;;14.40;76.58
61337;BME280;47212;41.326;2.104;2024-03-07T18:32:39;100994.28;;;14.38;76.74
61337;BME280;47212;41.326;2.104;2024-03-07T18:37:42;100991.28;;;14.39;76.68
61337;BME280;47212;41.326;2.104;2024-03-07T18:42:45;100986.91;;;14.38;77.21
61337;BME280;47212;41.326;2.104;2024-03-07T18:47:49;100983.09;;;14.34;76.95
61337;BME280;47212;41.326;2.104;2024-03-07T18:52:55;100963.38;;;14.32;77.13
61337;BME280;47212;41.326;2.104;2024-03-07T18:58:05;100953.56;;;14.26;78.11
61337;BME280;47212;41.326;2.104;2024-03-07T19:03:12;100951.91;;;14.25;77.86
61337;BME280;47212;41.326;2.104;2024-03-07T19:08:27;100953.56;;;14.26;77.40
61337;BME280;47212;41.326;2.104;2024-03-07T19:13:31;100961.50;;;14.27;77.80
61337;BME280;47212;41.326;2.104;2024-03-07T19:18:42;100957.41;;;14.25;77.81
61337;BME280;47212;41.326;2.104;2024-03-07T19:23:48;100959.59;;;14.23;77.86
61337;BME280;47212;41.326;2.104;2024-03-07T19:28:50;100956.28;;;14.26;77.00
61337;BME280;47212;41.326;2.104;2024-03-07T19:33:52;100948.66;;;14.23;76.76
61337;BME280;47212;41.326;2.104;2024-03-07T19:38:55;100950.84;;;14.21;75.69
61337;BME280;47212;41.326;2.104;2024-03-07T19:43:57;100950.31;;;14.19;75.49
61337;BME280;47212;41.326;2.104;2024-03-07T19:48:59;100942.09;;;14.19;74.96
61337;BME280;47212;41.326;2.104;2024-03-07T19:54:02;100953.03;;;14.19;74.77
61337;BME280;47212;41.326;2.104;2024-03-07T19:59:11;100951.41;;;14.18;74.86
61337;BME280;47212;41.326;2.104;2024-03-07T20:04:14;100957.16;;;14.16;74.38
61337;BME280;47212;41.326;2.104;2024-03-07T20:09:18;100955.81;;;14.14;74.19
61337;BME280;47212;41.326;2.104;2024-03-07T20:14:21;100950.91;;;14.11;73.45
61337;BME280;47212;41.326;2.104;2024-03-07T20:19:24;100955.28;;;14.12;72.62
61337;BME280;47212;41.326;2.104;2024-03-07T20:24:29;100960.75;;;14.12;72.28
61337;BME280;47212;41.326;2.104;2024-03-07T20:29:32;100958.81;;;14.12;72.88
61337;BME280;47212;41.326;2.104;2024-03-07T20:34:37;100956.38;;;14.11;72.42
61337;BME280;47212;41.326;2.104;2024-03-07T20:39:43;100945.41;;;14.11;72.55
61337;BME280;47212;41.326;2.104;2024-03-07T20:45:08;100956.94;;;14.08;72.64
61337;BME280;47212;41.326;2.104;2024-03-07T20:50:12;100960.50;;;14.03;72.92
61337;BME280;47212;41.326;2.104;2024-03-07T20:55:18;100953.13;;;14.03;72.81
61337;BME280;47212;41.326;2.104;2024-03-07T21:00:22;100953.41;;;14.02;73.15
61337;BME280;47212;41.326;2.104;2024-03-07T21:05:33;100952.00;;;14.05;73.93
61337;BME280;47212;41.326;2.104;2024-03-07T21:10:39;100950.13;;;14.00;74.15
61337;BME280;47212;41.326;2.104;2024-03-07T21:15:43;100936.72;;;13.98;74.73
61337;BME280;47212;41.326;2.104;2024-03-07T21:20:46;100942.19;;;13.98;75.08
61337;BME280;47212;41.326;2.104;2024-03-07T21:25:49;100949.88;;;13.96;75.63
61337;BME280;47212;41.326;2.104;2024-03-07T21:30:52;100958.66;;;13.88;76.29
61337;BME280;47212;41.326;2.104;2024-03-07T21:36:09;100948.53;;;13.89;77.44
61337;BME280;47212;41.326;2.104;2024-03-07T21:41:15;100941.66;;;13.91;76.85
61337;BME280;47212;41.326;2.104;2024-03-07T21:46:18;100932.66;;;13.91;76.87
61337;BME280;47212;41.326;2.104;2024-03-07T21:51:21;100925.22;;;13.96;77.02
61337;BME280;47212;41.326;2.104;2024-03-07T21:56:28;100922.75;;;14.00;77.32
61337;BME280;47212;41.326;2.104;2024-03-07T22:01:36;100900.56;;;14.01;77.71
61337;BME280;47212;41.326;2.104;2024-03-07T22:06:45;100899.47;;;14.02;76.87
61337;BME280;47212;41.326;2.104;2024-03-07T22:11:48;100891.81;;;14.05;76.13
61337;BME280;47212;41.326;2.104;2024-03-07T22:16:51;100888.53;;;14.02;76.23
61337;BME280;47212;41.326;2.104;2024-03-07T22:21:53;100879.78;;;14.00;76.44
61337;BME280;47212;41.326;2.104;2024-03-07T22:26:56;100885.00;;;13.97;76.45
61337;BME280;47212;41.326;2.104;2024-03-07T22:31:59;100860.91;;;13.99;76.35
61337;BME280;47212;41.326;2.104;2024-03-07T22:37:01;100855.16;;;14.00;76.60
61337;BME280;47212;41.326;2.104;2024-03-07T22:42:05;100851.63;;;13.95;77.16
61337;BME280;47212;41.326;2.104;2024-03-07T22:47:07;100840.41;;;13.96;77.69
61337;BME280;47212;41.326;2.104;2024-03-07T22:52:11;100838.47;;;13.97;77.50
61337;BME280;47212;41.326;2.104;2024-03-07T22:57:14;100843.66;;;13.98;77.92
61337;BME280;47212;41.326;2.104;2024-03-07T23:02:16;100814.91;;;14.01;80.92
61337;BME280;47212;41.326;2.104;2024-03-07T23:07:24;100808.34;;;14.02;78.81
61337;BME280;47212;41.326;2.104;2024-03-07T23:12:28;100800.13;;;14.02;79.13
61337;BME280;47212;41.326;2.104;2024-03-07T23:17:31;100785.09;;;13.99;79.23
61337;BME280;47212;41.326;2.104;2024-03-07T23:22:34;100779.63;;;13.99;79.84
61337;BME280;47212;41.326;2.104;2024-03-07T23:27:36;100798.78;;;13.99;80.58
61337;BME280;47212;41.326;2.104;2024-03-07T23:32:39;100784.28;;;13.99;80.96
61337;BME280;47212;41.326;2.104;2024-03-07T23:37:45;100786.47;;;13.97;81.67
61337;BME280;47212;41.326;2.104;2024-03-07T23:42:48;100759.88;;;14.02;81.39
61337;BME280;47212;41.326;2.104;2024-03-07T23:47:54;100747.84;;;14.03;81.24
61337;BME280;47212;41.326;2.104;2024-03-07T23:52:59;100753.06;;;14.00;82.09
61337;BME280;47212;41.326;2.104;2024-03-07T23:58:03;100755.03;;;13.94;82.00
